Time;durP1;ratioP1;P1;durP2;ratioP2;P2;SDS_P1;SDS_P2;PMS_P1;PMS_P2;Temp;Humidity;BMP_temperature;BMP_pressure;BME280_temperature;BME280_humidity;BME280_pressure;Samples;Min_cycle;Max_cycle;Signal;HPM_P1;HPM_P2
2022/09/11 00:01:42;;;;;;;53.40;34.05;;;;;;;;;;4963715;28;20221;-73
2022/09/11 00:04:08;;;;;;;51.72;33.25;;;;;;;;;;4962364;28;20232;-73
2022/09/11 00:06:37;;;;;;;55.60;34.07;;;;;;;;;;4954818;28;20221;-73
2022/09/11 00:09:05;;;;;;;49.10;34.10;;;;;;;;;;4951947;28;20337;-73
2022/09/11 00:11:39;;;;;;;49.33;34.42;;;;;;;;;;4975725;28;20224;-72
2022/09/11 00:14:04;;;;;;;57.83;35.73;;;;;;;;;;4978426;28;20226;-74
2022/09/11 00:16:34;;;;;;;53.38;36.67;;;;;;;;;;4941217;28;20235;-71
2022/09/11 00:19:06;;;;;;;58.35;37.20;;;;;;;;;;4972107;28;20233;-74
2022/09/11 00:21:36;;;;;;;54.42;36.92;;;;;;;;;;4969997;28;20221;-73
2022/09/11 00:24:05;;;;;;;61.93;38.13;;;;;;;;;;4970610;28;20296;-72
2022/09/11 00:26:32;;;;;;;56.90;38.40;;;;;;;;;;4977284;28;21038;-73
2022/09/11 00:29:01;;;;;;;55.20;38.67;;;;;;;;;;4959593;28;20238;-73
2022/09/11 00:31:28;;;;;;;60.40;39.47;;;;;;;;;;4953198;28;20248;-72
2022/09/11 00:33:55;;;;;;;56.85;38.47;;;;;;;;;;4962944;28;20213;-74
2022/09/11 00:36:23;;;;;;;58.58;39.33;;;;;;;;;;4953987;28;20295;-73
2022/09/11 00:38:49;;;;;;;61.40;40.83;;;;;;;;;;4967648;28;20220;-73
2022/09/11 00:41:19;;;;;;;57.80;40.93;;;;;;;;;;4954028;28;20274;-73
2022/09/11 00:43:56;;;;;;;59.22;41.88;;;;;;;;;;4956924;28;20315;-73
2022/09/11 00:46:23;;;;;;;65.28;42.80;;;;;;;;;;4953754;28;20233;-73
2022/09/11 00:48:49;;;;;;;59.97;42.45;;;;;;;;;;4952857;28;20233;-72
2022/09/11 00:51:22;;;;;;;61.35;42.17;;;;;;;;;;4957629;28;20253;-73
2022/09/11 00:53:48;;;;;;;58.58;41.28;;;;;;;;;;4953825;28;20232;-73
2022/09/11 00:56:18;;;;;;;54.97;40.25;;;;;;;;;;4992098;28;20366;-73
2022/09/11 00:58:46;;;;;;;58.15;42.70;;;;;;;;;;4969681;28;20220;-73
2022/09/11 01:01:13;;;;;;;55.97;42.53;;;;;;;;;;4954342;28;20291;-73
2022/09/11 01:03:39;;;;;;;59.70;45.05;;;;;;;;;;4955123;28;20710;-73
2022/09/11 01:06:08;;;;;;;57.37;42.53;;;;;;;;;;4938261;28;20228;-72
2022/09/11 01:08:34;;;;;;;57.47;42.80;;;;;;;;;;4953603;28;20295;-73
2022/09/11 01:11:08;;;;;;;53.47;42.03;;;;;;;;;;4961243;28;20745;-72
2022/09/11 01:14:11;;;;;;;52.40;42.33;;;;;;;;;;4973998;28;20275;-73
2022/09/11 01:16:40;;;;;;;57.47;42.55;;;;;;;;;;4980551;28;20225;-72
2022/09/11 01:19:17;;;;;;;53.70;42.58;;;;;;;;;;4971210;28;20231;-73
2022/09/11 01:21:51;;;;;;;51.85;41.90;;;;;;;;;;4986901;28;20307;-73
2022/09/11 01:24:51;;;;;;;54.53;41.85;;;;;;;;;;4959234;28;20715;-72
2022/09/11 01:27:38;;;;;;;49.50;40.85;;;;;;;;;;4970735;28;20600;-72
2022/09/11 01:30:07;;;;;;;53.10;40.72;;;;;;;;;;4983841;28;20244;-72
2022/09/11 01:33:05;;;;;;;47.55;39.70;;;;;;;;;;4960631;28;20224;-73
2022/09/11 01:36:14;;;;;;;45.90;38.33;;;;;;;;;;4959181;28;20228;-72
2022/09/11 01:38:51;;;;;;;42.83;38.20;;;;;;;;;;4964077;28;20229;-72
2022/09/11 01:41:31;;;;;;;43.85;38.97;;;;;;;;;;4965754;28;20275;-72
2022/09/11 01:44:06;;;;;;;43.70;38.15;;;;;;;;;;4973095;28;20230;-72
2022/09/11 01:46:35;;;;;;;42.13;37.60;;;;;;;;;;4966514;28;20225;-72
2022/09/11 01:49:17;;;;;;;44.47;36.92;;;;;;;;;;4948034;28;20237;-72
2022/09/11 01:51:43;;;;;;;41.87;36.17;;;;;;;;;;4970454;28;20300;-74
2022/09/11 01:54:21;;;;;;;39.42;35.00;;;;;;;;;;4963844;28;20297;-72
2022/09/11 01:56:54;;;;;;;38.33;34.45;;;;;;;;;;4951798;28;20217;-72
2022/09/11 01:59:24;;;;;;;43.13;36.33;;;;;;;;;;4953081;28;20253;-72
2022/09/11 02:01:54;;;;;;;38.80;34.25;;;;;;;;;;4944141;28;20229;-71
2022/09/11 02:04:34;;;;;;;38.17;32.58;;;;;;;;;;4962046;28;20315;-72
2022/09/11 02:07:08;;;;;;;37.22;33.05;;;;;;;;;;4966475;28;20227;-72
2022/09/11 02:09:41;;;;;;;38.67;32.65;;;;;;;;;;4954348;28;20316;-72
2022/09/11 02:12:09;;;;;;;35.97;32.25;;;;;;;;;;4956458;28;20315;-72
2022/09/11 02:14:44;;;;;;;37.17;32.35;;;;;;;;;;4968435;28;20707;-72
2022/09/11 02:17:23;;;;;;;36.60;30.43;;;;;;;;;;4969419;28;20241;-72
2022/09/11 02:19:54;;;;;;;35.92;31.02;;;;;;;;;;4980947;28;20236;-72
2022/09/11 02:22:23;;;;;;;33.35;29.88;;;;;;;;;;4956316;28;20256;-72
2022/09/11 02:24:48;;;;;;;35.17;30.35;;;;;;;;;;4957289;28;20325;-72
2022/09/11 02:27:22;;;;;;;32.88;29.38;;;;;;;;;;4976421;28;20236;-71
2022/09/11 02:29:52;;;;;;;33.35;29.95;;;;;;;;;;4957611;28;20225;-72
2022/09/11 02:32:19;;;;;;;30.83;27.63;;;;;;;;;;4966613;28;20241;-75
2022/09/11 02:34:50;;;;;;;30.73;27.52;;;;;;;;;;4968840;28;20217;-75
2022/09/11 02:37:37;;;;;;;32.53;29.17;;;;;;;;;;4961412;28;20217;-73
2022/09/11 02:40:30;;;;;;;32.05;28.75;;;;;;;;;;4967101;28;20699;-78
2022/09/11 02:43:19;;;;;;;31.67;28.33;;;;;;;;;;4948336;28;20236;-73
2022/09/11 02:46:21;;;;;;;32.35;28.88;;;;;;;;;;4979584;28;20232;-72
2022/09/11 02:49:21;;;;;;;31.38;28.20;;;;;;;;;;4981160;28;20240;-75
2022/09/11 02:52:10;;;;;;;30.80;27.40;;;;;;;;;;4988027;28;20220;-74
2022/09/11 02:55:17;;;;;;;30.00;26.77;;;;;;;;;;4945530;28;20228;-73
2022/09/11 02:57:46;;;;;;;31.77;27.65;;;;;;;;;;4950909;28;20259;-74
2022/09/11 03:00:13;;;;;;;31.05;27.60;;;;;;;;;;4978209;28;20743;-73
2022/09/11 03:02:40;;;;;;;30.48;27.52;;;;;;;;;;4955544;28;20239;-73
2022/09/11 03:05:09;;;;;;;30.58;27.33;;;;;;;;;;4955431;28;20346;-73
2022/09/11 03:07:36;;;;;;;30.75;27.70;;;;;;;;;;4956242;28;20722;-74
2022/09/11 03:10:02;;;;;;;28.95;25.95;;;;;;;;;;4956300;28;20607;-73
2022/09/11 03:12:28;;;;;;;28.88;26.05;;;;;;;;;;4967185;28;20290;-74
2022/09/11 03:14:56;;;;;;;28.45;24.90;;;;;;;;;;4966014;28;20794;-74
2022/09/11 03:17:22;;;;;;;27.20;24.48;;;;;;;;;;4963269;28;20226;-73
2022/09/11 03:19:48;;;;;;;28.67;25.73;;;;;;;;;;4956426;28;20231;-73
2022/09/11 03:22:19;;;;;;;29.25;25.90;;;;;;;;;;4969938;28;20235;-72
2022/09/11 03:24:49;;;;;;;27.05;24.27;;;;;;;;;;4959487;28;20290;-73
2022/09/11 03:27:16;;;;;;;27.52;24.58;;;;;;;;;;4960684;28;20279;-73
2022/09/11 03:29:44;;;;;;;27.42;24.63;;;;;;;;;;4961295;28;20229;-73
2022/09/11 03:32:10;;;;;;;26.53;23.93;;;;;;;;;;4980820;28;20237;-73
2022/09/11 03:34:36;;;;;;;28.98;24.77;;;;;;;;;;4973678;28;20659;-72
2022/09/11 03:37:04;;;;;;;27.33;24.58;;;;;;;;;;4969788;28;20331;-73
2022/09/11 03:39:32;;;;;;;26.85;24.00;;;;;;;;;;4981919;28;20755;-73
2022/09/11 03:42:02;;;;;;;26.90;24.10;;;;;;;;;;4939274;28;20236;-73
2022/09/11 03:44:29;;;;;;;27.90;24.45;;;;;;;;;;4968120;28;20699;-72
2022/09/11 03:46:56;;;;;;;28.65;25.65;;;;;;;;;;4979928;28;20247;-73
2022/09/11 03:49:23;;;;;;;29.25;26.35;;;;;;;;;;4951234;28;20260;-73
2022/09/11 03:51:49;;;;;;;31.77;28.13;;;;;;;;;;4989813;28;20231;-73
2022/09/11 03:54:17;;;;;;;30.88;27.60;;;;;;;;;;4955008;28;20623;-72
2022/09/11 03:56:49;;;;;;;33.97;29.67;;;;;;;;;;4951622;28;20584;-72
2022/09/11 03:59:14;;;;;;;34.30;30.80;;;;;;;;;;4949787;28;20234;-73
2022/09/11 04:01:44;;;;;;;34.15;30.67;;;;;;;;;;4941101;28;20568;-72
2022/09/11 04:04:14;;;;;;;36.03;31.55;;;;;;;;;;4986513;28;20280;-72
2022/09/11 04:06:45;;;;;;;36.33;32.38;;;;;;;;;;4966507;28;20308;-72
2022/09/11 04:09:12;;;;;;;38.70;31.58;;;;;;;;;;4986005;28;20233;-72
2022/09/11 04:11:41;;;;;;;37.67;31.90;;;;;;;;;;4964632;28;20223;-72
2022/09/11 04:14:18;;;;;;;36.58;32.72;;;;;;;;;;4987484;28;20213;-72
2022/09/11 04:16:44;;;;;;;32.80;29.40;;;;;;;;;;4982780;28;20225;-72
2022/09/11 04:19:11;;;;;;;35.97;30.23;;;;;;;;;;4970024;28;20240;-72
2022/09/11 04:21:41;;;;;;;35.83;29.85;;;;;;;;;;4954878;28;20304;-73
2022/09/11 04:24:11;;;;;;;35.35;30.85;;;;;;;;;;4963041;28;20229;-73
2022/09/11 04:26:42;;;;;;;33.40;29.33;;;;;;;;;;4948680;28;20225;-73
2022/09/11 04:29:21;;;;;;;32.63;29.13;;;;;;;;;;4962077;28;20237;-72
2022/09/11 04:31:47;;;;;;;32.17;28.73;;;;;;;;;;4969376;28;20252;-73
2022/09/11 04:34:13;;;;;;;35.05;29.05;;;;;;;;;;4960425;28;20771;-72
2022/09/11 04:36:42;;;;;;;31.10;27.87;;;;;;;;;;4952911;28;20469;-73
2022/09/11 04:39:12;;;;;;;31.60;27.08;;;;;;;;;;4959865;28;20228;-73
2022/09/11 04:41:43;;;;;;;33.35;28.10;;;;;;;;;;4945797;28;20275;-72
2022/09/11 04:44:11;;;;;;;30.05;27.05;;;;;;;;;;4965939;28;20969;-72
2022/09/11 04:46:44;;;;;;;30.77;27.45;;;;;;;;;;4945768;28;20213;-72
2022/09/11 04:49:10;;;;;;;30.45;27.35;;;;;;;;;;4959784;28;20321;-73
2022/09/11 04:51:37;;;;;;;29.50;26.40;;;;;;;;;;4962355;28;20671;-72
2022/09/11 04:54:04;;;;;;;29.92;26.30;;;;;;;;;;4969826;28;20236;-72
2022/09/11 04:56:36;;;;;;;27.98;25.02;;;;;;;;;;4956664;28;20224;-73
2022/09/11 04:59:12;;;;;;;28.42;25.45;;;;;;;;;;4962257;28;20231;-73
2022/09/11 05:01:42;;;;;;;27.55;24.88;;;;;;;;;;4964840;28;20217;-73
2022/09/11 05:04:14;;;;;;;26.42;23.92;;;;;;;;;;4957075;28;20278;-73
2022/09/11 05:06:47;;;;;;;28.00;25.03;;;;;;;;;;4943833;28;20230;-72
2022/09/11 05:09:16;;;;;;;26.40;23.80;;;;;;;;;;4968734;28;20256;-73
2022/09/11 05:11:43;;;;;;;25.23;22.73;;;;;;;;;;4945774;28;20223;-73
2022/09/11 05:14:10;;;;;;;24.70;22.23;;;;;;;;;;4952195;28;20229;-73
2022/09/11 05:16:36;;;;;;;24.77;22.38;;;;;;;;;;4967464;28;20221;-73
2022/09/11 05:19:06;;;;;;;24.90;22.55;;;;;;;;;;4955606;28;20221;-73
2022/09/11 05:21:36;;;;;;;23.23;21.13;;;;;;;;;;4971046;28;20229;-73
2022/09/11 05:24:01;;;;;;;24.10;21.67;;;;;;;;;;4944343;28;20302;-73
2022/09/11 05:26:30;;;;;;;23.20;20.95;;;;;;;;;;4959282;28;20221;-72
2022/09/11 05:29:01;;;;;;;22.58;20.25;;;;;;;;;;4967033;28;20238;-73
2022/09/11 05:31:32;;;;;;;24.35;20.52;;;;;;;;;;4969065;28;20224;-73
2022/09/11 05:34:00;;;;;;;23.23;20.88;;;;;;;;;;4980893;28;20802;-73
2022/09/11 05:36:31;;;;;;;24.83;22.20;;;;;;;;;;4953190;28;20245;-72
2022/09/11 05:38:59;;;;;;;26.55;22.50;;;;;;;;;;4968610;28;20877;-72
2022/09/11 05:41:24;;;;;;;25.08;22.42;;;;;;;;;;4955170;28;20229;-73
2022/09/11 05:43:51;;;;;;;28.40;25.05;;;;;;;;;;4952584;28;20252;-72
2022/09/11 05:46:18;;;;;;;27.27;24.45;;;;;;;;;;4951608;28;20235;-73
2022/09/11 05:48:48;;;;;;;28.85;25.25;;;;;;;;;;4958172;28;20277;-73
2022/09/11 05:51:20;;;;;;;29.17;24.92;;;;;;;;;;4956396;28;20735;-74
2022/09/11 05:53:53;;;;;;;31.48;25.38;;;;;;;;;;4957057;28;20221;-73
2022/09/11 05:56:22;;;;;;;34.15;25.08;;;;;;;;;;4956519;28;20243;-73
2022/09/11 05:58:53;;;;;;;38.67;27.63;;;;;;;;;;4967623;28;20248;-73
2022/09/11 06:01:25;;;;;;;39.37;27.57;;;;;;;;;;4969558;28;20220;-71
2022/09/11 06:04:01;;;;;;;36.63;26.93;;;;;;;;;;4971500;28;20223;-73
2022/09/11 06:06:31;;;;;;;30.33;24.27;;;;;;;;;;4953919;28;20298;-71
2022/09/11 06:09:03;;;;;;;32.77;24.77;;;;;;;;;;4967291;28;20233;-74
2022/09/11 06:11:30;;;;;;;32.60;22.90;;;;;;;;;;4953660;28;20629;-72
2022/09/11 06:13:56;;;;;;;26.20;21.73;;;;;;;;;;4982662;28;20217;-73
2022/09/11 06:16:26;;;;;;;35.43;23.83;;;;;;;;;;4964991;28;20232;-73
2022/09/11 06:18:56;;;;;;;30.57;23.27;;;;;;;;;;4953155;28;20217;-72
2022/09/11 06:21:22;;;;;;;33.08;24.95;;;;;;;;;;4967982;28;20227;-74
2022/09/11 06:23:58;;;;;;;30.88;24.83;;;;;;;;;;4959422;28;20216;-73
2022/09/11 06:26:25;;;;;;;32.63;26.00;;;;;;;;;;4957517;28;20229;-71
2022/09/11 06:28:56;;;;;;;32.72;24.60;;;;;;;;;;4938931;28;20282;-73
2022/09/11 06:31:24;;;;;;;30.83;25.00;;;;;;;;;;4956674;28;20228;-72
2022/09/11 06:33:52;;;;;;;32.97;25.13;;;;;;;;;;4954026;28;20228;-72
2022/09/11 06:36:22;;;;;;;32.65;25.55;;;;;;;;;;4956263;28;20233;-72
2022/09/11 06:38:59;;;;;;;32.35;24.98;;;;;;;;;;4964974;28;20227;-72
2022/09/11 06:41:27;;;;;;;29.92;23.30;;;;;;;;;;4954719;28;20217;-73
2022/09/11 06:43:59;;;;;;;32.40;24.52;;;;;;;;;;4967909;28;20225;-72
2022/09/11 06:46:29;;;;;;;32.78;25.20;;;;;;;;;;4970924;28;20231;-72
2022/09/11 06:48:56;;;;;;;32.35;25.60;;;;;;;;;;4987318;28;20316;-72
2022/09/11 06:51:25;;;;;;;32.33;25.67;;;;;;;;;;4942217;28;20217;-73
2022/09/11 06:53:56;;;;;;;33.53;25.45;;;;;;;;;;4970646;28;20228;-72
2022/09/11 06:56:22;;;;;;;32.30;25.35;;;;;;;;;;4957337;28;21167;-72
2022/09/11 06:58:53;;;;;;;33.13;24.40;;;;;;;;;;4957927;28;20224;-72
2022/09/11 07:01:24;;;;;;;29.88;24.00;;;;;;;;;;4964444;28;20351;-73
2022/09/11 07:03:54;;;;;;;29.83;24.95;;;;;;;;;;4958951;28;20260;-72
2022/09/11 07:06:25;;;;;;;31.98;24.75;;;;;;;;;;4952459;28;20283;-71
2022/09/11 07:09:01;;;;;;;28.40;23.42;;;;;;;;;;4951862;28;20236;-71
2022/09/11 07:11:37;;;;;;;28.02;23.75;;;;;;;;;;4971007;28;20778;-71
2022/09/11 07:14:05;;;;;;;31.08;23.33;;;;;;;;;;4956116;28;20221;-72
2022/09/11 07:16:36;;;;;;;34.85;24.65;;;;;;;;;;4955949;28;20233;-70
2022/09/11 07:19:06;;;;;;;27.27;22.75;;;;;;;;;;4971950;28;20222;-73
2022/09/11 07:21:33;;;;;;;26.77;22.83;;;;;;;;;;4970796;28;20628;-72
2022/09/11 07:24:02;;;;;;;30.05;22.08;;;;;;;;;;4957826;28;20233;-72
2022/09/11 07:26:34;;;;;;;27.80;21.95;;;;;;;;;;4971406;28;20248;-72
2022/09/11 07:29:06;;;;;;;25.08;21.35;;;;;;;;;;4981950;28;20236;-72
2022/09/11 07:31:34;;;;;;;26.23;22.33;;;;;;;;;;4971086;28;20233;-72
2022/09/11 07:34:01;;;;;;;24.95;20.15;;;;;;;;;;4955242;28;20339;-72
2022/09/11 07:36:32;;;;;;;26.58;20.08;;;;;;;;;;4971810;28;20221;-72
2022/09/11 07:38:58;;;;;;;23.05;18.88;;;;;;;;;;4943492;28;20236;-72
2022/09/11 07:41:35;;;;;;;20.95;18.75;;;;;;;;;;4972041;28;20215;-73
2022/09/11 07:44:10;;;;;;;21.25;18.13;;;;;;;;;;4971052;28;20216;-71
2022/09/11 07:46:39;;;;;;;19.50;15.77;;;;;;;;;;4951120;28;20220;-72
2022/09/11 07:49:09;;;;;;;19.38;13.70;;;;;;;;;;4971802;28;20228;-72
2022/09/11 07:51:36;;;;;;;14.77;13.20;;;;;;;;;;4977252;28;20701;-73
2022/09/11 07:54:04;;;;;;;13.57;12.02;;;;;;;;;;4972268;28;20247;-73
2022/09/11 07:56:32;;;;;;;15.68;12.60;;;;;;;;;;4956387;28;20983;-73
2022/09/11 07:59:01;;;;;;;13.73;11.05;;;;;;;;;;4969706;28;20373;-73
2022/09/11 08:01:32;;;;;;;11.38;10.23;;;;;;;;;;4968703;28;20252;-72
2022/09/11 08:04:10;;;;;;;11.60;10.35;;;;;;;;;;4947111;23;20230;-82
2022/09/11 08:06:38;;;;;;;15.13;10.57;;;;;;;;;;4935761;29;20223;-82
2022/09/11 08:09:18;;;;;;;14.02;10.35;;;;;;;;;;4921312;28;20219;-82
2022/09/11 08:11:52;;;;;;;11.50;10.30;;;;;;;;;;4938351;28;20237;-82
2022/09/11 08:14:23;;;;;;;12.65;9.60;;;;;;;;;;4911198;28;20712;-82
2022/09/11 08:16:49;;;;;;;11.70;9.45;;;;;;;;;;4935099;29;20305;-82
2022/09/11 08:19:17;;;;;;;10.95;9.32;;;;;;;;;;4939175;28;20219;-84
2022/09/11 08:21:43;;;;;;;11.88;9.35;;;;;;;;;;4946542;28;20700;-82
2022/09/11 08:24:13;;;;;;;14.77;9.70;;;;;;;;;;4940229;28;20249;-83
2022/09/11 08:26:39;;;;;;;12.52;10.15;;;;;;;;;;4926280;29;20282;-83
2022/09/11 08:29:05;;;;;;;13.23;10.27;;;;;;;;;;4923854;28;20230;-83
2022/09/11 08:31:33;;;;;;;14.13;11.82;;;;;;;;;;4957638;28;20323;-84
2022/09/11 08:34:02;;;;;;;18.50;13.05;;;;;;;;;;4930511;29;20730;-82
2022/09/11 08:36:28;;;;;;;16.80;13.10;;;;;;;;;;4941721;28;20227;-82
2022/09/11 08:38:57;;;;;;;17.08;13.45;;;;;;;;;;4944460;28;20278;-81
2022/09/11 08:41:59;;;;;;;16.73;13.27;;;;;;;;;;4926433;28;20219;-82
2022/09/11 08:44:29;;;;;;;15.68;13.48;;;;;;;;;;4927051;28;20223;-83
2022/09/11 08:47:19;;;;;;;14.32;12.73;;;;;;;;;;4954851;28;20242;-81
2022/09/11 08:50:05;;;;;;;16.33;13.90;;;;;;;;;;4956947;28;20247;-83
2022/09/11 08:52:32;;;;;;;16.98;13.80;;;;;;;;;;4971468;28;20222;-82
2022/09/11 08:54:59;;;;;;;13.55;12.20;;;;;;;;;;4943643;29;20243;-83
2022/09/11 08:57:45;;;;;;;14.88;13.27;;;;;;;;;;4939320;28;20225;-83
2022/09/11 09:00:20;;;;;;;13.45;12.18;;;;;;;;;;4942654;28;20218;-85
2022/09/11 09:06:08;;;;;;;13.50;11.95;;;;;;;;;;5069357;27;20577;-72
2022/09/11 09:08:36;;;;;;;13.10;11.68;;;;;;;;;;5052349;28;20251;-73
2022/09/11 09:11:13;;;;;;;14.00;12.50;;;;;;;;;;5073025;28;20226;-74
2022/09/11 09:13:57;;;;;;;14.25;12.30;;;;;;;;;;5057958;28;20640;-73
2022/09/11 09:16:47;;;;;;;13.63;12.48;;;;;;;;;;5077454;28;20218;-72
2022/09/11 09:19:30;;;;;;;14.52;13.02;;;;;;;;;;5075882;28;20235;-72
2022/09/11 09:22:18;;;;;;;13.77;12.48;;;;;;;;;;5075749;28;20214;-73
2022/09/11 09:24:48;;;;;;;13.65;12.27;;;;;;;;;;5051158;28;20288;-73
2022/09/11 09:27:38;;;;;;;15.00;13.50;;;;;;;;;;5034608;28;20218;-73
2022/09/11 09:30:15;;;;;;;16.90;14.45;;;;;;;;;;5059550;28;20223;-73
2022/09/11 09:33:10;;;;;;;15.45;13.90;;;;;;;;;;5060189;28;20225;-74
2022/09/11 09:35:37;;;;;;;16.58;14.98;;;;;;;;;;5059039;28;20256;-73
2022/09/11 09:38:30;;;;;;;16.63;14.63;;;;;;;;;;5055090;28;20219;-72
2022/09/11 09:41:20;;;;;;;14.90;13.48;;;;;;;;;;5056301;28;20219;-73
2022/09/11 09:44:27;;;;;;;15.77;14.18;;;;;;;;;;5085217;28;20314;-73
2022/09/11 09:46:53;;;;;;;14.77;13.27;;;;;;;;;;5072793;28;20237;-72
2022/09/11 09:49:26;;;;;;;14.82;13.43;;;;;;;;;;5042290;28;20227;-72
2022/09/11 09:51:58;;;;;;;15.20;13.45;;;;;;;;;;5024023;28;20286;-72
2022/09/11 09:54:28;;;;;;;14.52;13.02;;;;;;;;;;5071798;28;20377;-72
2022/09/11 09:57:02;;;;;;;13.80;12.52;;;;;;;;;;5020211;28;20230;-72
2022/09/11 09:59:39;;;;;;;13.15;11.95;;;;;;;;;;5071123;28;20689;-73
2022/09/11 10:02:08;;;;;;;12.63;11.45;;;;;;;;;;5044003;28;20250;-72
2022/09/11 10:04:36;;;;;;;13.70;12.40;;;;;;;;;;5061495;28;20234;-72
2022/09/11 10:07:10;;;;;;;15.25;12.70;;;;;;;;;;5063751;28;20234;-72
2022/09/11 10:09:43;;;;;;;13.82;12.43;;;;;;;;;;5083555;28;20708;-71
2022/09/11 10:12:13;;;;;;;11.70;10.50;;;;;;;;;;5072506;28;20242;-72
2022/09/11 10:14:49;;;;;;;11.43;10.32;;;;;;;;;;5046039;28;20633;-72
2022/09/11 10:17:28;;;;;;;10.35;9.45;;;;;;;;;;5030516;28;20811;-73
2022/09/11 10:20:11;;;;;;;9.95;9.05;;;;;;;;;;5046224;28;20219;-72
2022/09/11 10:22:36;;;;;;;10.35;9.32;;;;;;;;;;5057931;28;20240;-73
2022/09/11 10:25:09;;;;;;;10.75;9.65;;;;;;;;;;5040450;28;20278;-72
2022/09/11 10:27:58;;;;;;;8.45;7.65;;;;;;;;;;5047894;28;20235;-73
2022/09/11 10:30:26;;;;;;;9.02;8.20;;;;;;;;;;5032469;28;20219;-73
2022/09/11 10:32:52;;;;;;;7.70;6.68;;;;;;;;;;5038323;28;20230;-73
2022/09/11 10:35:17;;;;;;;7.63;6.60;;;;;;;;;;5039347;28;20216;-72
2022/09/11 10:37:43;;;;;;;8.52;7.72;;;;;;;;;;5010463;28;20227;-73
2022/09/11 10:40:20;;;;;;;8.43;7.53;;;;;;;;;;5022699;28;20260;-73
2022/09/11 10:42:47;;;;;;;8.32;7.53;;;;;;;;;;5028594;28;20298;-72
2022/09/11 10:45:15;;;;;;;8.20;7.32;;;;;;;;;;5041332;28;20219;-72
2022/09/11 10:47:41;;;;;;;7.25;6.65;;;;;;;;;;5071209;28;20285;-72
2022/09/11 10:50:28;;;;;;;7.00;6.40;;;;;;;;;;5061316;28;20235;-73
2022/09/11 10:52:56;;;;;;;5.93;5.32;;;;;;;;;;5061261;28;20219;-72
2022/09/11 10:55:27;;;;;;;6.75;5.95;;;;;;;;;;5052629;28;20278;-73
2022/09/11 10:57:56;;;;;;;5.20;4.80;;;;;;;;;;5060677;28;20263;-72
2022/09/11 11:00:21;;;;;;;7.22;5.47;;;;;;;;;;5042387;28;20720;-72
2022/09/11 11:02:47;;;;;;;5.68;4.85;;;;;;;;;;5049792;28;20235;-72
2022/09/11 11:05:35;;;;;;;5.40;4.82;;;;;;;;;;5067909;28;20331;-72
2022/09/11 11:08:03;;;;;;;5.68;5.18;;;;;;;;;;5061471;28;20235;-71
2022/09/11 11:11:02;;;;;;;5.15;4.65;;;;;;;;;;5039849;28;20231;-72
2022/09/11 11:14:03;;;;;;;5.57;5.03;;;;;;;;;;5044634;28;20743;-73
2022/09/11 11:16:50;;;;;;;5.43;5.03;;;;;;;;;;5062310;28;20273;-70
2022/09/11 11:19:22;;;;;;;5.13;4.60;;;;;;;;;;5043305;28;20904;-71
2022/09/11 11:21:56;;;;;;;4.28;3.97;;;;;;;;;;5060126;28;20224;-71
2022/09/11 11:24:45;;;;;;;4.03;3.63;;;;;;;;;;5056486;28;20227;-71
2022/09/11 11:27:51;;;;;;;4.00;3.70;;;;;;;;;;5065455;28;20245;-71
2022/09/11 11:30:20;;;;;;;3.05;2.80;;;;;;;;;;5055284;28;20258;-71
2022/09/11 11:33:18;;;;;;;2.58;2.38;;;;;;;;;;5040922;28;20280;-73
2022/09/11 11:35:59;;;;;;;2.53;2.33;;;;;;;;;;5040107;28;20250;-70
2022/09/11 11:38:27;;;;;;;2.72;2.40;;;;;;;;;;5034149;28;20226;-73
2022/09/11 11:41:08;;;;;;;2.60;2.40;;;;;;;;;;5054268;28;20230;-73
2022/09/11 11:43:36;;;;;;;1.80;1.70;;;;;;;;;;5051158;28;20686;-72
2022/09/11 11:46:14;;;;;;;2.25;1.83;;;;;;;;;;5035351;28;20632;-72
2022/09/11 11:48:45;;;;;;;1.95;1.50;;;;;;;;;;5041503;28;20234;-72
2022/09/11 11:51:17;;;;;;;1.65;1.55;;;;;;;;;;5018931;28;20758;-73
2022/09/11 11:53:45;;;;;;;1.60;1.50;;;;;;;;;;5051933;28;20755;-72
2022/09/11 11:56:42;;;;;;;1.40;1.30;;;;;;;;;;5075684;28;20242;-73
2022/09/11 11:59:30;;;;;;;1.55;1.30;;;;;;;;;;5016025;28;20232;-72
2022/09/11 12:02:02;;;;;;;1.60;1.50;;;;;;;;;;5039064;28;20710;-71
2022/09/11 12:04:42;;;;;;;1.45;1.35;;;;;;;;;;5042986;28;20235;-72
2022/09/11 12:07:25;;;;;;;1.30;1.20;;;;;;;;;;5056437;28;20227;-72
2022/09/11 12:09:54;;;;;;;1.15;1.10;;;;;;;;;;5043945;28;20211;-72
2022/09/11 12:12:23;;;;;;;1.65;1.25;;;;;;;;;;5020567;28;20232;-73
2022/09/11 12:14:51;;;;;;;1.23;1.02;;;;;;;;;;5042872;28;20220;-73
2022/09/11 12:17:26;;;;;;;1.58;1.20;;;;;;;;;;5035502;28;21082;-75
2022/09/11 12:20:10;;;;;;;1.10;1.00;;;;;;;;;;5051877;28;20961;-73
2022/09/11 12:22:48;;;;;;;1.27;1.15;;;;;;;;;;5035803;28;20236;-73
2022/09/11 12:25:19;;;;;;;0.90;0.90;;;;;;;;;;5046217;28;20227;-73
2022/09/11 12:27:45;;;;;;;1.25;1.17;;;;;;;;;;5051078;28;20240;-72
2022/09/11 12:30:16;;;;;;;1.25;1.05;;;;;;;;;;5050116;28;20226;-73
2022/09/11 12:32:46;;;;;;;0.77;0.77;;;;;;;;;;5036623;28;20870;-73
2022/09/11 12:35:37;;;;;;;1.65;1.08;;;;;;;;;;5069883;28;20632;-73
2022/09/11 12:38:05;;;;;;;1.75;1.10;;;;;;;;;;5053184;28;20220;-73
2022/09/11 12:40:37;;;;;;;1.27;0.82;;;;;;;;;;5041616;28;20219;-73
2022/09/11 12:43:19;;;;;;;1.00;1.00;;;;;;;;;;5037163;28;20220;-72
2022/09/11 12:45:50;;;;;;;1.13;0.88;;;;;;;;;;5052831;28;20227;-72
2022/09/11 12:48:21;;;;;;;0.93;0.93;;;;;;;;;;5027334;28;20306;-73
2022/09/11 12:50:52;;;;;;;1.25;1.10;;;;;;;;;;5058414;28;20744;-73
2022/09/11 12:53:23;;;;;;;0.68;0.68;;;;;;;;;;5042369;28;20282;-73
2022/09/11 12:56:04;;;;;;;4.97;0.70;;;;;;;;;;5067229;28;20308;-73
2022/09/11 12:58:30;;;;;;;0.90;0.90;;;;;;;;;;5036033;28;20223;-72
2022/09/11 13:01:21;;;;;;;1.23;0.98;;;;;;;;;;5037508;28;20220;-73
2022/09/11 13:04:09;;;;;;;0.95;0.88;;;;;;;;;;5024951;28;20788;-74
2022/09/11 13:06:36;;;;;;;1.40;0.90;;;;;;;;;;5061355;28;20234;-78
2022/09/11 13:09:07;;;;;;;1.00;1.00;;;;;;;;;;5074529;28;20231;-78
2022/09/11 13:11:48;;;;;;;0.77;0.77;;;;;;;;;;5060194;28;20236;-79
2022/09/11 13:14:45;;;;;;;0.88;0.88;;;;;;;;;;5038964;28;21079;-78
2022/09/11 13:17:22;;;;;;;1.40;0.90;;;;;;;;;;5063238;28;20306;-80
2022/09/11 13:19:50;;;;;;;1.10;1.00;;;;;;;;;;5063701;28;20228;-79
2022/09/11 13:22:21;;;;;;;1.00;1.00;;;;;;;;;;5062558;28;20216;-80
2022/09/11 13:24:47;;;;;;;0.95;0.80;;;;;;;;;;5070652;28;20315;-81
2022/09/11 13:27:25;;;;;;;0.90;0.85;;;;;;;;;;5047284;28;20227;-76
2022/09/11 13:29:53;;;;;;;0.80;0.80;;;;;;;;;;5030958;28;20223;-78
2022/09/11 13:32:19;;;;;;;0.93;0.93;;;;;;;;;;5021386;28;20234;-73
2022/09/11 13:34:51;;;;;;;0.80;0.80;;;;;;;;;;5049676;28;20747;-72
2022/09/11 13:37:38;;;;;;;1.95;1.17;;;;;;;;;;5022589;28;20761;-71
2022/09/11 13:40:07;;;;;;;1.77;1.10;;;;;;;;;;5038112;28;20302;-72
2022/09/11 13:42:34;;;;;;;1.00;0.88;;;;;;;;;;5036709;28;20215;-70
2022/09/11 13:45:05;;;;;;;0.88;0.85;;;;;;;;;;5055093;28;20307;-72
2022/09/11 13:47:35;;;;;;;0.90;0.90;;;;;;;;;;5018393;28;20281;-71
2022/09/11 13:50:05;;;;;;;0.90;0.90;;;;;;;;;;5041703;28;20685;-71
2022/09/11 13:52:32;;;;;;;0.82;0.82;;;;;;;;;;5044350;28;20220;-72
2022/09/11 13:54:59;;;;;;;2.72;0.77;;;;;;;;;;5055657;28;20211;-70
2022/09/11 13:57:27;;;;;;;1.00;1.00;;;;;;;;;;5060917;28;20309;-71
2022/09/11 13:59:53;;;;;;;1.33;1.00;;;;;;;;;;5055058;28;20745;-72
2022/09/11 14:02:34;;;;;;;1.90;1.02;;;;;;;;;;5071118;28;20223;-72
2022/09/11 14:05:18;;;;;;;1.10;1.00;;;;;;;;;;5058733;28;20306;-72
2022/09/11 14:08:07;;;;;;;1.05;0.90;;;;;;;;;;5044566;28;20228;-73
2022/09/11 14:10:40;;;;;;;1.10;0.90;;;;;;;;;;5026828;28;20223;-71
2022/09/11 14:13:33;;;;;;;1.17;1.08;;;;;;;;;;5061492;28;20230;-71
2022/09/11 14:16:03;;;;;;;0.98;0.80;;;;;;;;;;5046197;28;20310;-72
2022/09/11 14:18:47;;;;;;;0.90;0.90;;;;;;;;;;5032889;28;20243;-70
2022/09/11 14:21:23;;;;;;;1.23;0.93;;;;;;;;;;5039981;28;20218;-72
2022/09/11 14:23:52;;;;;;;1.55;1.20;;;;;;;;;;5072507;28;20222;-74
2022/09/11 14:26:17;;;;;;;1.27;1.00;;;;;;;;;;5028082;28;20219;-74
2022/09/11 14:29:30;;;;;;;1.10;1.00;;;;;;;;;;5042153;28;20232;-73
2022/09/11 14:32:28;;;;;;;1.17;1.08;;;;;;;;;;5071997;28;20246;-72
2022/09/11 14:34:54;;;;;;;1.00;0.85;;;;;;;;;;5036172;28;21096;-72
2022/09/11 14:37:19;;;;;;;1.48;1.10;;;;;;;;;;5041461;28;20270;-72
2022/09/11 14:39:46;;;;;;;0.93;0.93;;;;;;;;;;5054200;28;20230;-70
2022/09/11 14:42:16;;;;;;;1.13;1.00;;;;;;;;;;5056964;28;20223;-72
2022/09/11 14:44:42;;;;;;;0.93;0.93;;;;;;;;;;5059971;28;21080;-72
2022/09/11 14:47:23;;;;;;;2.22;1.10;;;;;;;;;;5060105;28;20223;-71
2022/09/11 14:49:53;;;;;;;1.08;1.05;;;;;;;;;;5059392;28;20228;-75
2022/09/11 14:52:19;;;;;;;1.38;1.27;;;;;;;;;;5027221;28;20230;-72
2022/09/11 14:54:46;;;;;;;1.02;0.90;;;;;;;;;;5033916;28;20265;-71
2022/09/11 14:57:18;;;;;;;1.13;1.10;;;;;;;;;;5055469;28;20292;-71
2022/09/11 14:59:44;;;;;;;1.67;1.13;;;;;;;;;;5034545;28;20247;-71
2022/09/11 15:02:14;;;;;;;1.42;1.30;;;;;;;;;;5036399;28;20229;-72
2022/09/11 15:04:40;;;;;;;1.80;1.05;;;;;;;;;;5021435;28;20239;-72